Time;durP1;ratioP1;P1;durP2;ratioP2;P2;SDS_P1;SDS_P2;PMS_P1;PMS_P2;Temp;Humidity;BMP_temperature;BMP_pressure;BME280_temperature;BME280_humidity;BME280_pressure;Samples;Min_cycle;Max_cycle;Signal;HPM_P1;HPM_P2
2021/12/28 00:01:27;;;;;;;23.08;13.82;;;4.00;99.90;;;;;;5095809;28;20091;-79
2021/12/28 00:03:53;;;;;;;21.33;13.13;;;3.00;99.90;;;;;;5095911;28;20495;-78
2021/12/28 00:06:19;;;;;;;23.27;14.10;;;3.50;99.90;;;;;;5095644;28;20051;-78
2021/12/28 00:08:46;;;;;;;25.75;14.57;;;2.60;99.90;;;;;;5077833;28;20044;-78
2021/12/28 00:11:12;;;;;;;25.30;15.10;;;3.00;99.90;;;;;;5094427;28;20055;-77
2021/12/28 00:13:39;;;;;;;25.10;14.68;;;3.20;99.90;;;;;;5077630;28;20060;-77
2021/12/28 00:18:34;;;;;;;23.40;14.57;;;2.70;99.90;;;;;;5095489;28;20182;-77
2021/12/28 00:21:03;;;;;;;25.33;15.32;;;2.70;99.90;;;;;;5095454;28;20063;-78
2021/12/28 00:23:37;;;;;;;24.02;15.02;;;3.90;99.90;;;;;;5095243;28;20130;-79
2021/12/28 00:26:04;;;;;;;23.02;15.45;;;2.70;99.90;;;;;;5078374;28;20048;-78
2021/12/28 00:28:31;;;;;;;25.02;16.05;;;2.70;99.90;;;;;;5095356;28;20040;-80
2021/12/28 00:30:58;;;;;;;22.60;14.45;;;2.70;99.90;;;;;;5094762;28;20048;-80
2021/12/28 00:33:25;;;;;;;26.20;15.85;;;2.80;99.90;;;;;;5095159;28;20196;-81
2021/12/28 00:35:51;;;;;;;22.17;15.02;;;2.80;99.90;;;;;;5077249;28;20040;-78
2021/12/28 00:38:22;;;;;;;21.33;13.50;;;3.50;99.90;;;;;;5077206;28;20052;-78
2021/12/28 00:40:53;;;;;;;27.33;15.15;;;3.60;99.90;;;;;;5095132;28;20040;-79
2021/12/28 00:43:19;;;;;;;24.10;16.25;;;4.40;99.90;;;;;;5095023;28;20048;-79
2021/12/28 00:45:46;;;;;;;26.15;16.55;;;3.40;99.90;;;;;;5094866;28;20036;-78
2021/12/28 00:48:12;;;;;;;23.92;14.98;;;4.40;99.90;;;;;;5076979;28;20092;-78
2021/12/28 00:50:38;;;;;;;27.50;16.77;;;3.70;99.90;;;;;;5094829;28;20143;-78
2021/12/28 00:53:04;;;;;;;26.70;16.10;;;2.90;99.90;;;;;;5094659;28;20040;-78
2021/12/28 00:55:30;;;;;;;24.77;14.98;;;3.00;99.90;;;;;;5094910;28;20047;-78
2021/12/28 00:57:56;;;;;;;25.80;17.70;;;3.00;99.90;;;;;;5094831;28;20083;-78
2021/12/28 01:00:26;;;;;;;22.75;14.60;;;3.00;99.90;;;;;;5094573;28;20469;-77
2021/12/28 01:02:51;;;;;;;27.67;16.08;;;4.40;99.90;;;;;;5094485;28;20136;-81
2021/12/28 01:05:18;;;;;;;24.80;16.05;;;3.10;99.90;;;;;;5094524;28;20140;-77
2021/12/28 01:07:44;;;;;;;26.70;16.27;;;4.60;99.90;;;;;;5094511;28;20059;-78
2021/12/28 01:10:13;;;;;;;28.10;18.13;;;3.10;99.90;;;;;;5094610;28;20044;-78
2021/12/28 01:12:39;;;;;;;31.98;16.95;;;3.20;99.90;;;;;;5076518;28;20051;-78
2021/12/28 01:15:08;;;;;;;25.55;16.73;;;4.50;99.90;;;;;;5110504;28;20430;-78
2021/12/28 01:17:35;;;;;;;27.25;16.70;;;3.10;99.90;;;;;;5076237;28;20048;-82
2021/12/28 01:20:00;;;;;;;29.90;17.38;;;4.40;99.90;;;;;;5094311;28;20041;-79
2021/12/28 01:22:26;;;;;;;29.15;17.20;;;4.20;99.90;;;;;;5093820;28;20609;-78
2021/12/28 01:24:52;;;;;;;28.95;17.25;;;3.10;99.90;;;;;;5094316;28;20127;-78
2021/12/28 01:27:18;;;;;;;33.30;17.75;;;4.30;99.90;;;;;;5094270;28;20052;-78
2021/12/28 01:29:44;;;;;;;31.30;17.33;;;3.10;99.90;;;;;;5094158;28;20130;-79
2021/12/28 01:32:10;;;;;;;32.78;17.75;;;4.20;99.90;;;;;;5076113;28;20282;-78
2021/12/28 01:34:36;;;;;;;26.48;17.02;;;3.50;99.90;;;;;;5094011;28;20048;-78
2021/12/28 01:37:02;;;;;;;28.85;17.85;;;3.10;99.90;;;;;;5075894;28;20055;-78
2021/12/28 01:39:28;;;;;;;27.08;18.10;;;3.10;99.90;;;;;;5076223;28;20063;-78
2021/12/28 01:41:53;;;;;;;31.53;19.70;;;3.70;99.90;;;;;;5094034;28;20411;-78
2021/12/28 01:44:19;;;;;;;32.40;18.27;;;3.40;99.90;;;;;;5093975;28;20271;-79
2021/12/28 01:46:45;;;;;;;31.73;20.17;;;4.60;99.90;;;;;;5093793;28;20043;-81
2021/12/28 01:49:11;;;;;;;33.67;21.17;;;4.40;99.90;;;;;;5093729;28;20047;-78
2021/12/28 01:51:38;;;;;;;33.67;20.27;;;4.50;99.90;;;;;;5093622;28;20437;-78
2021/12/28 01:54:05;;;;;;;39.63;21.23;;;3.70;99.90;;;;;;5076038;28;20048;-79
2021/12/28 01:56:37;;;;;;;37.45;22.27;;;3.20;99.90;;;;;;5093744;28;20131;-78
2021/12/28 01:59:03;;;;;;;41.65;21.83;;;4.60;99.90;;;;;;5075854;28;20048;-76
2021/12/28 02:01:30;;;;;;;38.92;22.60;;;3.20;99.90;;;;;;5093625;28;20073;-78
2021/12/28 02:03:56;;;;;;;46.58;23.83;;;4.00;99.90;;;;;;5093683;28;20044;-77
2021/12/28 02:06:25;;;;;;;42.50;22.63;;;3.30;99.90;;;;;;5058820;28;20050;-78
2021/12/28 02:08:54;;;;;;;43.47;23.15;;;3.70;99.90;;;;;;5093360;28;20480;-78
2021/12/28 02:11:21;;;;;;;38.42;25.65;;;3.30;99.90;;;;;;5093326;28;20043;-78
2021/12/28 02:13:48;;;;;;;46.72;25.25;;;3.40;99.90;;;;;;5075656;28;20086;-81
2021/12/28 02:16:15;;;;;;;41.92;24.50;;;3.40;99.90;;;;;;5092448;28;20043;-78
2021/12/28 02:18:41;;;;;;;43.95;24.70;;;3.40;99.90;;;;;;5093353;28;20043;-79
2021/12/28 02:21:07;;;;;;;46.33;24.98;;;3.40;99.90;;;;;;5093257;28;20085;-77
2021/12/28 02:23:33;;;;;;;;;;;3.40;99.90;;;;;;5094001;28;20044;-77
2021/12/28 02:25:59;;;;;;;47.20;26.27;;;5.50;99.90;;;;;;5075482;28;19920;-80
2021/12/28 02:28:25;;;;;;;43.30;25.30;;;3.40;99.90;;;;;;5093218;28;20537;-80
2021/12/28 02:30:56;;;;;;;46.67;25.63;;;4.10;99.90;;;;;;5075060;28;20139;-78
2021/12/28 02:33:23;;;;;;;49.33;26.42;;;3.50;99.90;;;;;;5093305;28;20044;-78
2021/12/28 02:35:50;;;;;;;52.53;26.67;;;4.30;99.90;;;;;;5097076;28;20040;-78
2021/12/28 02:38:16;;;;;;;51.22;28.48;;;5.00;99.90;;;;;;5097618;28;20131;-77
2021/12/28 02:40:43;;;;;;;52.85;27.58;;;4.60;99.90;;;;;;5079409;28;20044;-81
2021/12/28 02:43:14;;;;;;;58.63;29.95;;;3.50;99.90;;;;;;5097179;28;20437;-77
2021/12/28 02:45:47;;;;;;;49.50;29.05;;;4.10;99.90;;;;;;5097180;28;20057;-80
2021/12/28 02:48:14;;;;;;;53.78;29.75;;;3.80;99.90;;;;;;5097093;28;20048;-78
2021/12/28 02:50:48;;;;;;;;;;;3.80;99.90;;;;;;5097450;28;20402;-77
2021/12/28 02:53:14;;;;;;;61.28;30.35;;;3.60;99.90;;;;;;5097200;28;19920;-80
2021/12/28 02:55:40;;;;;;;56.97;29.48;;;5.50;99.90;;;;;;5097135;28;20044;-81
2021/12/28 02:58:21;;;;;;;64.50;31.95;;;3.60;99.90;;;;;;5097074;28;20044;-77
2021/12/28 03:00:55;;;;;;;69.68;32.45;;;4.00;99.90;;;;;;5096962;28;20495;-77
2021/12/28 03:03:24;;;;;;;58.40;30.80;;;3.60;99.90;;;;;;5096956;28;20055;-78
2021/12/28 03:05:53;;;;;;;61.33;31.63;;;3.60;99.90;;;;;;5079094;28;20051;-79
2021/12/28 03:08:21;;;;;;;66.97;31.58;;;4.80;99.90;;;;;;5096776;28;20044;-77
2021/12/28 03:10:48;;;;;;;74.88;33.47;;;3.60;99.90;;;;;;5096739;28;20117;-78
2021/12/28 03:13:26;;;;;;;77.32;35.40;;;3.60;99.90;;;;;;5096762;28;20051;-77
2021/12/28 03:15:53;;;;;;;80.30;36.40;;;4.00;99.90;;;;;;5095352;28;20503;-77
2021/12/28 03:18:20;;;;;;;72.65;33.63;;;3.60;99.90;;;;;;5096339;28;20051;-79
2021/12/28 03:20:46;;;;;;;66.50;33.22;;;4.90;99.90;;;;;;5096523;28;20509;-77
2021/12/28 03:23:16;;;;;;;;;;;4.90;99.90;;;;;;5097073;28;20127;-77
2021/12/28 03:25:42;;;;;;;73.32;35.20;;;3.70;99.90;;;;;;5111903;28;20012;-78
2021/12/28 03:28:08;;;;;;;78.22;35.00;;;5.50;99.90;;;;;;5096384;28;20084;-78
2021/12/28 03:30:33;;;;;;;66.28;33.28;;;3.70;99.90;;;;;;5095963;28;20128;-78
2021/12/28 03:32:59;;;;;;;66.30;36.20;;;3.70;99.90;;;;;;5096455;28;20495;-77
2021/12/28 03:35:25;;;;;;;83.30;36.58;;;3.70;99.90;;;;;;5096380;28;20044;-77
2021/12/28 03:37:51;;;;;;;77.60;37.88;;;4.90;99.90;;;;;;5078375;28;20044;-79
2021/12/28 03:40:18;;;;;;;74.28;35.30;;;3.70;99.90;;;;;;5112307;28;20063;-78
2021/12/28 03:42:44;;;;;;;96.10;41.45;;;3.70;99.90;;;;;;5095058;28;20051;-78
2021/12/28 03:45:10;;;;;;;101.03;44.40;;;3.70;99.90;;;;;;5095949;28;20076;-77
2021/12/28 03:47:37;;;;;;;100.53;41.72;;;3.70;99.90;;;;;;5096100;28;20055;-79
2021/12/28 03:50:06;;;;;;;123.45;47.15;;;3.70;99.90;;;;;;5096069;28;20047;-77
2021/12/28 03:52:32;;;;;;;101.45;42.50;;;3.70;99.90;;;;;;5077984;28;20095;-77
2021/12/28 03:54:58;;;;;;;112.47;45.90;;;3.70;99.90;;;;;;5095917;28;20040;-77
2021/12/28 03:57:24;;;;;;;105.97;45.05;;;4.00;99.90;;;;;;5095968;28;20044;-77
2021/12/28 03:59:50;;;;;;;143.80;51.70;;;3.90;99.90;;;;;;5095742;28;20043;-79
2021/12/28 04:02:15;;;;;;;89.47;40.05;;;4.50;99.90;;;;;;5095980;28;20051;-77
2021/12/28 04:04:41;;;;;;;111.53;45.38;;;3.70;99.90;;;;;;5095862;28;20040;-78
2021/12/28 04:07:09;;;;;;;101.35;40.97;;;4.30;99.90;;;;;;5095710;28;20044;-77
2021/12/28 04:09:59;;;;;;;96.10;41.80;;;3.80;99.90;;;;;;5076775;28;20048;-79
2021/12/28 04:12:26;;;;;;;127.07;50.65;;;3.70;99.90;;;;;;5095604;28;20044;-79
2021/12/28 04:14:51;;;;;;;164.23;54.83;;;4.90;99.90;;;;;;5077924;28;20055;-77
2021/12/28 04:17:17;;;;;;;151.13;50.35;;;3.70;99.90;;;;;;5095548;28;20048;-78
2021/12/28 04:19:43;;;;;;;164.35;54.83;;;4.30;99.90;;;;;;5095565;28;20511;-78
2021/12/28 04:22:09;;;;;;;138.85;49.13;;;3.80;99.90;;;;;;5095327;28;20535;-77
2021/12/28 04:24:35;;;;;;;204.75;59.80;;;3.80;99.90;;;;;;5095403;28;20135;-78
2021/12/28 04:27:00;;;;;;;278.58;72.28;;;4.00;99.90;;;;;;5077062;28;20083;-77
2021/12/28 04:29:26;;;;;;;241.68;68.45;;;4.40;99.90;;;;;;5095376;28;20109;-78
2021/12/28 04:31:52;;;;;;;214.15;61.78;;;3.80;99.90;;;;;;5095235;28;20430;-77
2021/12/28 04:34:18;;;;;;;349.77;90.05;;;3.80;99.90;;;;;;5095283;28;20044;-77
2021/12/28 04:36:43;;;;;;;338.90;84.30;;;5.40;99.90;;;;;;5095033;28;20487;-79
2021/12/28 04:39:09;;;;;;;218.02;63.70;;;3.80;99.90;;;;;;5095095;28;20433;-78
2021/12/28 04:41:35;;;;;;;433.98;102.45;;;3.90;99.90;;;;;;5095044;28;20065;-78
2021/12/28 04:44:01;;;;;;;363.97;80.07;;;4.20;99.90;;;;;;5094914;28;20455;-79
2021/12/28 04:46:28;;;;;;;319.48;79.55;;;3.90;99.90;;;;;;5094970;28;20282;-79
2021/12/28 04:48:54;;;;;;;313.95;78.57;;;4.70;99.90;;;;;;5076853;28;20055;-78
2021/12/28 04:51:20;;;;;;;288.27;71.18;;;4.70;99.90;;;;;;5095016;28;20055;-79
2021/12/28 04:53:48;;;;;;;295.92;72.47;;;5.10;99.90;;;;;;5094832;28;20044;-78
2021/12/28 04:56:14;;;;;;;294.10;70.07;;;5.50;99.90;;;;;;5093591;28;20051;-77
2021/12/28 04:58:39;;;;;;;361.60;81.40;;;4.00;99.90;;;;;;5094115;28;20096;-81
2021/12/28 05:01:05;;;;;;;259.52;63.88;;;5.20;99.90;;;;;;5094839;28;20059;-79
2021/12/28 05:03:31;;;;;;;265.80;67.07;;;5.20;99.90;;;;;;5094650;28;20044;-78
2021/12/28 05:05:56;;;;;;;325.92;77.03;;;4.10;99.90;;;;;;5094665;28;20058;-78
2021/12/28 05:08:22;;;;;;;252.75;61.65;;;4.10;99.90;;;;;;5094472;28;20054;-80
2021/12/28 05:10:50;;;;;;;337.92;83.32;;;4.10;99.90;;;;;;5094381;28;20097;-78
2021/12/28 05:13:17;;;;;;;308.65;71.38;;;5.70;99.90;;;;;;5076502;28;20123;-78
2021/12/28 05:15:44;;;;;;;316.33;73.35;;;5.10;99.90;;;;;;5076432;28;20052;-78
2021/12/28 05:18:12;;;;;;;351.77;75.47;;;5.40;99.90;;;;;;5094324;28;20055;-79
2021/12/28 05:20:38;;;;;;;313.30;74.07;;;4.10;99.90;;;;;;5093312;28;20052;-78
2021/12/28 05:23:04;;;;;;;287.98;69.75;;;4.10;99.90;;;;;;5094292;28;20051;-78
2021/12/28 05:25:30;;;;;;;351.98;70.82;;;4.10;99.90;;;;;;5094181;28;20074;-78
2021/12/28 05:27:56;;;;;;;370.85;81.32;;;4.40;99.90;;;;;;5094087;28;20144;-77
2021/12/28 05:30:22;;;;;;;343.85;76.68;;;4.10;99.90;;;;;;5093854;28;20052;-79
2021/12/28 05:32:48;;;;;;;250.10;58.97;;;4.10;99.90;;;;;;5093103;28;20059;-78
2021/12/28 05:35:15;;;;;;;365.83;77.47;;;4.20;99.90;;;;;;5094143;28;20048;-79
2021/12/28 05:37:40;;;;;;;314.00;74.82;;;4.10;99.90;;;;;;5094013;28;20494;-77
2021/12/28 05:40:08;;;;;;;352.90;76.55;;;4.10;99.90;;;;;;5109956;28;20051;-77
2021/12/28 05:42:34;;;;;;;366.55;75.95;;;4.10;99.90;;;;;;5093753;28;20048;-80
2021/12/28 05:45:00;;;;;;;331.80;76.93;;;5.40;99.90;;;;;;5093785;28;20051;-79
2021/12/28 05:47:26;;;;;;;335.90;78.88;;;4.50;99.90;;;;;;5093895;28;20036;-77
2021/12/28 05:49:52;;;;;;;304.50;76.13;;;4.20;99.90;;;;;;5093848;28;20526;-81
2021/12/28 05:52:17;;;;;;;279.15;72.53;;;4.20;99.90;;;;;;5093856;28;20087;-76
2021/12/28 05:54:43;;;;;;;305.98;75.03;;;4.20;99.90;;;;;;5093695;28;20116;-78
2021/12/28 05:57:09;;;;;;;241.80;63.97;;;4.20;99.90;;;;;;5093592;28;20399;-77
2021/12/28 05:59:35;;;;;;;221.10;60.63;;;4.90;99.90;;;;;;5093593;28;20044;-78
2021/12/28 06:02:01;;;;;;;;;;;5.30;99.90;;;;;;5094082;28;20083;-78
2021/12/28 06:04:26;;;;;;;224.52;60.38;;;4.20;99.90;;;;;;5093694;28;19978;-78
2021/12/28 06:06:52;;;;;;;184.75;60.13;;;4.20;99.90;;;;;;5109496;28;20086;-79
2021/12/28 06:09:18;;;;;;;161.82;52.17;;;4.90;99.90;;;;;;5092575;28;20497;-78
2021/12/28 06:11:44;;;;;;;108.47;45.10;;;4.30;99.90;;;;;;5075462;28;20498;-78
2021/12/28 06:14:10;;;;;;;138.48;46.35;;;4.30;99.90;;;;;;5093314;28;20047;-81
2021/12/28 06:16:36;;;;;;;116.00;43.80;;;6.00;99.90;;;;;;5075887;28;20135;-76
2021/12/28 06:19:03;;;;;;;;;;;5.00;99.90;;;;;;5075934;28;20056;-79
2021/12/28 06:21:31;;;;;;;91.97;39.23;;;6.00;99.90;;;;;;5093533;28;19965;-78
2021/12/28 06:23:59;;;;;;;117.72;42.78;;;4.30;99.90;;;;;;5093429;28;20059;-78
2021/12/28 06:26:26;;;;;;;101.60;41.58;;;4.30;99.90;;;;;;5093288;28;20052;-82
2021/12/28 06:28:52;;;;;;;88.53;37.50;;;5.00;99.90;;;;;;5075197;28;20048;-75
2021/12/28 06:31:18;;;;;;;86.85;39.70;;;5.00;99.90;;;;;;5093180;28;20112;-81
2021/12/28 06:33:43;;;;;;;97.93;41.13;;;4.30;99.90;;;;;;5093339;28;20491;-81
2021/12/28 06:36:09;;;;;;;91.00;38.50;;;4.30;99.90;;;;;;5093191;28;20044;-79
2021/12/28 06:38:35;;;;;;;90.63;39.40;;;5.80;99.90;;;;;;5093228;28;20050;-79
2021/12/28 06:41:01;;;;;;;83.25;35.72;;;4.30;99.90;;;;;;5093140;28;20040;-79
2021/12/28 06:43:26;;;;;;;71.20;33.55;;;5.30;99.90;;;;;;5093100;28;20514;-79
2021/12/28 06:45:55;;;;;;;65.15;33.95;;;6.00;99.90;;;;;;5109017;28;20050;-82
2021/12/28 06:48:21;;;;;;;67.47;34.20;;;6.10;99.90;;;;;;5093199;28;20116;-78
2021/12/28 06:50:47;;;;;;;66.55;31.42;;;5.60;99.90;;;;;;5093087;28;20095;-83
2021/12/28 06:53:13;;;;;;;57.90;30.90;;;5.20;99.90;;;;;;5075121;28;20092;-79
2021/12/28 06:55:38;;;;;;;62.47;30.75;;;5.50;99.90;;;;;;5058513;28;20048;-78
2021/12/28 06:58:05;;;;;;;50.47;28.73;;;4.50;99.90;;;;;;5092992;28;20048;-81
2021/12/28 07:00:31;;;;;;;;;;;5.50;99.90;;;;;;5075592;28;20138;-79
2021/12/28 07:02:57;;;;;;;65.85;31.52;;;4.50;99.90;;;;;;5092127;28;19920;-80
2021/12/28 07:05:22;;;;;;;74.53;34.33;;;4.40;99.90;;;;;;5093000;28;20048;-80
2021/12/28 07:07:48;;;;;;;61.63;28.40;;;4.80;99.90;;;;;;5092858;28;20108;-80
2021/12/28 07:10:14;;;;;;;60.17;28.67;;;4.50;99.90;;;;;;5058195;28;20047;-79
2021/12/28 07:12:39;;;;;;;51.03;25.73;;;4.40;99.90;;;;;;5092968;28;20371;-79
2021/12/28 07:15:07;;;;;;;54.72;27.38;;;4.40;99.90;;;;;;5092825;28;20048;-83
2021/12/28 07:17:33;;;;;;;61.08;26.27;;;4.40;99.90;;;;;;5074854;28;20371;-82
2021/12/28 07:19:58;;;;;;;54.10;26.17;;;4.40;99.90;;;;;;5093639;28;20039;-80
2021/12/28 07:22:24;;;;;;;50.30;24.63;;;5.80;99.90;;;;;;5078396;28;20055;-80
2021/12/28 07:24:50;;;;;;;44.28;22.48;;;4.40;99.90;;;;;;5096556;28;20052;-83
2021/12/28 07:27:16;;;;;;;48.47;26.38;;;4.40;99.90;;;;;;5078422;28;20050;-79
2021/12/28 07:29:41;;;;;;;47.00;23.35;;;5.50;99.90;;;;;;5061267;28;20146;-78
2021/12/28 07:32:08;;;;;;;47.90;22.60;;;5.90;99.90;;;;;;5095053;28;20056;-78
2021/12/28 07:34:34;;;;;;;42.53;21.80;;;4.40;99.90;;;;;;5078590;28;20048;-79
2021/12/28 07:37:00;;;;;;;51.20;24.77;;;5.70;99.90;;;;;;5096356;28;20044;-82
2021/12/28 07:39:27;;;;;;;44.58;21.58;;;4.40;99.90;;;;;;5078334;28;20513;-80
2021/12/28 07:41:53;;;;;;;47.10;23.45;;;4.40;99.90;;;;;;5096179;28;20127;-79
2021/12/28 07:44:18;;;;;;;48.03;22.63;;;4.40;99.90;;;;;;5096022;28;20131;-82
2021/12/28 07:46:44;;;;;;;50.30;23.23;;;4.60;99.90;;;;;;5095978;28;20048;-82
2021/12/28 07:49:10;;;;;;;46.33;21.13;;;5.40;99.90;;;;;;5096112;28;20040;-78
2021/12/28 07:51:36;;;;;;;49.72;21.67;;;4.30;99.90;;;;;;5096151;28;20048;-81
2021/12/28 07:54:02;;;;;;;48.53;20.65;;;4.30;99.90;;;;;;5095944;28;20071;-81
2021/12/28 07:56:28;;;;;;;38.75;20.52;;;5.60;99.90;;;;;;5078138;28;20411;-80
2021/12/28 07:58:54;;;;;;;43.00;20.55;;;4.50;99.90;;;;;;5095908;28;20097;-81
2021/12/28 08:01:19;;;;;;;39.53;20.02;;;5.60;99.90;;;;;;5095600;28;20479;-79
2021/12/28 08:03:45;;;;;;;40.75;19.02;;;4.20;99.90;;;;;;5095792;28;20044;-80
2021/12/28 08:06:11;;;;;;;36.55;19.65;;;4.00;99.90;;;;;;5077364;28;20518;-83
2021/12/28 08:08:36;;;;;;;37.10;18.73;;;4.30;99.90;;;;;;5077826;28;20174;-80
2021/12/28 08:11:03;;;;;;;44.97;20.20;;;4.30;99.90;;;;;;5095478;28;20304;-80
2021/12/28 08:13:29;;;;;;;35.38;19.17;;;4.30;99.90;;;;;;5077445;28;20062;-82
2021/12/28 08:15:55;;;;;;;38.40;18.23;;;4.70;99.90;;;;;;5094012;28;20044;-80
2021/12/28 08:18:21;;;;;;;;;;;4.70;99.90;;;;;;5095687;28;20052;-81
2021/12/28 08:20:46;;;;;;;38.72;17.67;;;4.30;99.90;;;;;;5077629;28;20011;-80
2021/12/28 08:23:12;;;;;;;35.83;15.73;;;4.30;99.90;;;;;;5095367;28;20044;-80
2021/12/28 08:25:38;;;;;;;35.30;15.38;;;4.30;99.90;;;;;;5095434;28;20044;-79
2021/12/28 08:28:06;;;;;;;32.75;15.75;;;4.40;99.90;;;;;;5095187;28;20051;-81
2021/12/28 08:30:37;;;;;;;30.92;14.82;;;4.40;99.90;;;;;;5095321;28;20117;-80
2021/12/28 08:33:05;;;;;;;35.25;14.52;;;4.60;99.90;;;;;;5092535;28;20052;-79
2021/12/28 08:35:31;;;;;;;29.30;15.05;;;4.40;99.90;;;;;;5094027;28;20043;-81
2021/12/28 08:37:57;;;;;;;30.98;15.18;;;4.50;99.90;;;;;;5093928;28;20140;-80
2021/12/28 08:40:24;;;;;;;29.50;13.38;;;5.70;99.90;;;;;;5076686;28;20392;-81
2021/12/28 08:42:50;;;;;;;26.50;12.98;;;4.90;99.90;;;;;;5095025;28;20040;-80
2021/12/28 08:45:16;;;;;;;31.95;14.25;;;5.50;99.90;;;;;;5094929;28;20071;-83
2021/12/28 08:47:43;;;;;;;28.90;12.68;;;4.60;99.90;;;;;;5095110;28;20052;-81
2021/12/28 08:50:09;;;;;;;30.10;12.55;;;4.60;99.90;;;;;;5076956;28;20109;-80
2021/12/28 08:52:36;;;;;;;32.50;12.48;;;4.60;99.90;;;;;;5093936;28;20506;-80
2021/12/28 08:55:03;;;;;;;31.92;11.48;;;4.70;99.90;;;;;;5094870;28;20471;-79
2021/12/28 08:57:29;;;;;;;31.98;12.65;;;4.70;99.90;;;;;;5094566;28;20483;-78
2021/12/28 08:59:54;;;;;;;35.55;11.27;;;5.30;99.90;;;;;;5094677;28;20043;-79
2021/12/28 09:02:20;;;;;;;22.73;10.73;;;6.20;99.90;;;;;;5094344;28;20054;-78
2021/12/28 09:04:46;;;;;;;31.60;12.23;;;4.80;99.90;;;;;;5094761;28;20392;-83
2021/12/28 09:07:17;;;;;;;27.30;10.93;;;5.60;99.90;;;;;;5076583;28;20131;-79
2021/12/28 09:09:44;;;;;;;25.80;10.98;;;6.00;99.90;;;;;;5094461;28;20105;-80
2021/12/28 09:12:11;;;;;;;23.85;11.48;;;5.80;99.90;;;;;;5094559;28;20048;-81
2021/12/28 09:14:37;;;;;;;24.73;10.63;;;5.00;99.90;;;;;;5093399;28;20547;-80
2021/12/28 09:17:03;;;;;;;;;;;5.00;99.90;;;;;;5076450;28;20052;-82
2021/12/28 09:19:30;;;;;;;25.48;10.50;;;5.20;99.90;;;;;;5110169;28;19980;-80
2021/12/28 09:21:56;;;;;;;24.73;10.15;;;6.60;99.90;;;;;;5075782;28;20636;-78
2021/12/28 09:24:22;;;;;;;27.02;9.77;;;5.10;99.90;;;;;;5094335;28;20131;-79
2021/12/28 09:26:48;;;;;;;26.33;10.43;;;5.20;99.90;;;;;;5076417;28;20104;-79
2021/12/28 09:29:13;;;;;;;29.77;10.60;;;7.00;99.90;;;;;;5094009;28;20059;-80
2021/12/28 09:31:39;;;;;;;28.17;10.23;;;6.50;99.90;;;;;;5093652;28;20055;-80
2021/12/28 09:34:05;;;;;;;16.77;9.20;;;6.40;99.90;;;;;;5094088;28;20491;-82
2021/12/28 09:36:31;;;;;;;29.63;9.95;;;5.30;99.90;;;;;;5094116;28;20101;-81
2021/12/28 09:38:56;;;;;;;32.63;13.07;;;6.20;99.90;;;;;;5094028;28;20242;-79
2021/12/28 09:41:22;;;;;;;22.08;10.57;;;6.00;99.90;;;;;;5093940;28;20108;-79
2021/12/28 09:43:48;;;;;;;27.38;9.68;;;7.10;99.90;;;;;;5109647;28;20109;-81
2021/12/28 09:46:14;;;;;;;26.13;10.07;;;6.10;99.90;;;;;;5093877;28;20433;-79
2021/12/28 09:48:39;;;;;;;25.15;10.15;;;5.50;99.90;;;;;;5093710;28;20429;-79
2021/12/28 09:51:06;;;;;;;22.25;9.65;;;5.50;99.90;;;;;;5093582;28;20475;-79
2021/12/28 09:53:32;;;;;;;25.80;11.43;;;5.00;99.90;;;;;;5075576;28;20487;-82
2021/12/28 09:55:58;;;;;;;24.40;9.93;;;5.60;99.90;;;;;;5093599;28;20055;-79
2021/12/28 09:58:24;;;;;;;26.27;9.88;;;5.60;99.90;;;;;;5093637;28;20048;-83
2021/12/28 10:00:50;;;;;;;23.05;10.40;;;5.90;99.90;;;;;;5092515;28;20116;-80
2021/12/28 10:03:17;;;;;;;22.13;9.23;;;5.70;99.90;;;;;;5093249;28;20127;-78
2021/12/28 10:05:43;;;;;;;25.65;10.70;;;6.40;99.90;;;;;;5093763;28;20051;-80
2021/12/28 10:08:08;;;;;;;22.95;9.98;;;7.00;99.90;;;;;;5093606;28;20040;-79
2021/12/28 10:10:46;;;;;;;25.25;10.00;;;5.70;99.90;;;;;;5093512;28;20403;-80
2021/12/28 10:13:20;;;;;;;27.75;9.85;;;5.70;99.90;;;;;;5075392;28;20125;-79
2021/12/28 10:15:48;;;;;;;20.13;8.65;;;6.00;99.90;;;;;;5092356;28;20495;-84
2021/12/28 10:18:15;;;;;;;21.80;9.90;;;5.70;99.90;;;;;;5075529;28;20040;-78
2021/12/28 10:20:44;;;;;;;21.50;9.18;;;6.90;99.90;;;;;;5092296;28;20059;-82
2021/12/28 10:23:16;;;;;;;21.08;8.57;;;5.80;99.90;;;;;;5093311;28;20483;-82
2021/12/28 10:25:57;;;;;;;22.63;9.70;;;7.10;99.90;;;;;;5092234;28;20476;-82
2021/12/28 10:28:35;;;;;;;20.73;10.30;;;5.80;99.90;;;;;;5091579;28;20457;-77
2021/12/28 10:31:09;;;;;;;19.58;9.63;;;5.90;99.90;;;;;;5093206;28;20052;-80
2021/12/28 10:33:38;;;;;;;21.88;10.43;;;5.90;99.90;;;;;;5093066;28;20117;-80
2021/12/28 10:36:10;;;;;;;18.55;9.65;;;6.10;99.90;;;;;;5093210;28;20037;-79
2021/12/28 10:38:39;;;;;;;18.58;8.90;;;6.10;99.90;;;;;;5091903;28;20048;-80
2021/12/28 10:41:07;;;;;;;23.15;8.95;;;6.50;99.90;;;;;;5093056;28;20065;-79
2021/12/28 10:43:36;;;;;;;24.75;9.13;;;6.10;99.90;;;;;;5093287;28;20079;-80
2021/12/28 10:46:10;;;;;;;17.75;8.43;;;5.90;99.90;;;;;;5093193;28;20119;-79
2021/12/28 10:48:39;;;;;;;21.52;8.30;;;6.00;99.90;;;;;;5092863;28;20088;-80
2021/12/28 10:51:09;;;;;;;22.13;9.50;;;6.00;99.90;;;;;;5093451;28;20361;-81
2021/12/28 10:54:12;;;;;;;27.35;8.80;;;7.70;99.90;;;;;;5126064;28;20097;-81
2021/12/28 10:56:46;;;;;;;17.58;8.45;;;6.30;99.90;;;;;;5096544;28;20116;-80
2021/12/28 10:59:14;;;;;;;20.88;8.57;;;7.70;99.90;;;;;;5097074;28;20079;-81
2021/12/28 11:01:42;;;;;;;18.83;8.15;;;6.10;99.90;;;;;;5096862;28;20044;-79
2021/12/28 11:04:13;;;;;;;18.73;8.25;;;6.10;99.90;;;;;;5096843;28;20052;-79
2021/12/28 11:06:48;;;;;;;15.55;8.32;;;7.50;99.90;;;;;;5096996;28;20131;-81
2021/12/28 11:09:20;;;;;;;20.67;7.97;;;6.20;99.90;;;;;;5096832;28;20047;-80
2021/12/28 11:11:47;;;;;;;17.80;8.15;;;6.20;99.90;;;;;;5096835;28;20444;-81
2021/12/28 11:14:17;;;;;;;26.00;9.95;;;6.70;99.90;;;;;;5096743;28;20044;-79
2021/12/28 11:16:50;;;;;;;18.80;8.10;;;6.50;99.90;;;;;;5096685;28;20047;-80
2021/12/28 11:19:24;;;;;;;15.00;7.90;;;6.30;99.90;;;;;;5095841;28;20059;-80
2021/12/28 11:21:54;;;;;;;18.08;7.50;;;6.30;99.90;;;;;;5096334;28;20043;-77
2021/12/28 11:24:21;;;;;;;15.32;7.57;;;6.30;99.90;;;;;;5096171;28;20048;-78
2021/12/28 11:26:49;;;;;;;21.23;7.88;;;6.40;99.90;;;;;;5096306;28;20048;-80
2021/12/28 11:29:34;;;;;;;17.65;7.35;;;6.30;99.90;;;;;;5094915;28;20044;-80
2021/12/28 11:32:06;;;;;;;15.68;8.18;;;6.40;99.90;;;;;;5096232;28;20059;-80
2021/12/28 11:34:36;;;;;;;20.05;7.65;;;6.40;99.90;;;;;;5096206;28;20051;-81
2021/12/28 11:37:12;;;;;;;25.38;8.05;;;6.40;99.90;;;;;;5096244;28;20101;-79
2021/12/28 11:39:48;;;;;;;19.50;7.65;;;6.40;99.90;;;;;;5094825;28;20057;-80
2021/12/28 11:42:19;;;;;;;19.92;7.63;;;6.40;99.90;;;;;;5096191;28;20101;-80
2021/12/28 11:44:47;;;;;;;19.85;8.07;;;6.50;99.90;;;;;;5096447;28;20085;-80
2021/12/28 11:47:16;;;;;;;16.05;7.13;;;6.50;99.90;;;;;;5099510;28;20055;-80
2021/12/28 11:49:45;;;;;;;18.20;7.65;;;6.50;99.90;;;;;;5095759;28;20625;-80
2021/12/28 11:52:15;;;;;;;17.38;7.63;;;6.50;99.90;;;;;;5077785;28;20604;-78
2021/12/28 11:54:48;;;;;;;17.33;7.85;;;6.50;99.90;;;;;;5095925;28;20066;-78
2021/12/28 11:57:19;;;;;;;21.42;7.82;;;6.50;99.90;;;;;;5095839;28;20449;-80
2021/12/28 11:59:56;;;;;;;14.93;7.43;;;6.50;99.90;;;;;;5095722;28;20256;-82
2021/12/28 12:02:45;;;;;;;18.13;7.80;;;6.50;99.90;;;;;;5095577;28;20047;-79
2021/12/28 12:05:15;;;;;;;15.65;7.53;;;6.50;99.90;;;;;;5095455;28;20501;-79
2021/12/28 12:07:42;;;;;;;17.77;8.00;;;6.50;99.90;;;;;;5095639;28;20044;-80
2021/12/28 12:10:18;;;;;;;19.40;7.95;;;6.50;99.90;;;;;;5095562;28;20054;-80
2021/12/28 12:12:46;;;;;;;17.25;6.95;;;6.60;99.90;;;;;;5095513;28;20052;-81
2021/12/28 12:15:13;;;;;;;20.25;8.25;;;6.60;99.90;;;;;;5095477;28;20403;-81
2021/12/28 12:17:48;;;;;;;13.65;8.05;;;6.60;99.90;;;;;;5095200;28;20078;-81
2021/12/28 12:20:20;;;;;;;15.82;6.90;;;7.00;99.90;;;;;;5095451;28;20483;-80
2021/12/28 12:22:48;;;;;;;17.05;7.85;;;6.60;99.90;;;;;;5095364;28;20048;-81
2021/12/28 12:25:45;;;;;;;15.93;6.82;;;6.70;99.90;;;;;;5093819;28;20514;-81
2021/12/28 12:28:12;;;;;;;20.50;8.55;;;6.60;99.90;;;;;;5052411;28;20064;-81
2021/12/28 12:30:52;;;;;;;16.88;6.40;;;6.60;99.90;;;;;;5050951;28;20108;-82
2021/12/28 12:33:20;;;;;;;14.35;7.32;;;5.70;99.90;;;;;;5052363;28;20119;-80
2021/12/28 12:35:59;;;;;;;20.95;8.07;;;6.60;99.90;;;;;;5052447;28;20060;-80
2021/12/28 12:38:27;;;;;;;15.30;7.25;;;6.60;99.90;;;;;;5052151;28;20049;-81
2021/12/28 12:41:01;;;;;;;13.05;6.85;;;6.60;99.90;;;;;;5052473;28;20088;-79
2021/12/28 12:43:38;;;;;;;17.13;7.35;;;6.60;99.90;;;;;;5052466;28;20052;-80
2021/12/28 12:46:28;;;;;;;16.33;7.68;;;6.60;99.90;;;;;;5052266;28;20080;-80